Time;durP1;ratioP1;P1;durP2;ratioP2;P2;SDS_P1;SDS_P2;PMS_P1;PMS_P2;Temp;Humidity;BMP_temperature;BMP_pressure;BME280_temperature;BME280_humidity;BME280_pressure;Samples;Min_cycle;Max_cycle;Signal;HPM_P1;HPM_P2
2023/06/10 00:00:12;;;;;;;;;;;;;;;15.76;90.35;100033.89;134150;1304;23116;-77
2023/06/10 00:03:16;;;;;;;;;;;;;;;15.78;90.45;100040.77;134053;1305;22428;-77
2023/06/10 00:06:17;;;;;;;;;;;;;;;15.79;90.48;100035.30;134087;1298;22458;-77
2023/06/10 00:09:18;;;;;;;;;;;;;;;15.81;90.52;100039.34;134132;1300;22451;-77
2023/06/10 00:12:20;;;;;;;;;;;;;;;15.81;90.52;100039.63;134096;1299;22440;-77
2023/06/10 00:15:20;;;;;;;;;;;;;;;15.82;90.58;100036.84;134090;1304;22678;-77
2023/06/10 00:18:21;;;;;;;;;;;;;;;15.84;90.59;100039.30;134044;1300;22475;-77
2023/06/10 00:21:24;;;;;;;;;;;;;;;15.84;90.56;100041.32;134047;1299;22486;-77
2023/06/10 00:24:25;;;;;;;;;;;;;;;15.84;90.59;100040.98;134010;1298;22467;-77
2023/06/10 00:27:31;;;;;;;;;;;;;;;15.82;90.64;100037.52;134028;1304;23121;-76
2023/06/10 00:30:31;;;;;;;;;;;;;;;15.81;90.72;100036.04;133960;1304;23214;-77
2023/06/10 00:33:32;;;;;;;;;;;;;;;15.83;90.80;100040.13;134122;1302;22545;-77
2023/06/10 00:36:32;;;;;;;;;;;;;;;15.83;90.86;100038.67;134063;1298;23128;-76
2023/06/10 00:39:33;;;;;;;;;;;;;;;15.83;90.86;100042.60;134064;1303;22555;-77
2023/06/10 00:42:36;;;;;;;;;;;;;;;15.83;90.79;100039.05;134096;1305;22525;-77
2023/06/10 00:45:36;;;;;;;;;;;;;;;15.84;90.83;100039.84;133899;1305;23227;-77
2023/06/10 00:48:37;;;;;;;;;;;;;;;15.84;90.92;100040.86;133907;1302;22437;-77
2023/06/10 00:51:39;;;;;;;;;;;;;;;15.84;90.90;100041.61;134140;1298;22442;-77
2023/06/10 00:54:40;;;;;;;;;;;;;;;15.82;90.94;100045.02;134086;1305;23062;-77
2023/06/10 00:57:40;;;;;;;;;;;;;;;15.82;90.94;100043.70;134066;1302;22521;-77
2023/06/10 01:00:41;;;;;;;;;;;;;;;15.81;91.10;100042.63;134125;1301;22461;-77
2023/06/10 01:03:41;;;;;;;;;;;;;;;15.77;91.10;100036.23;134035;1305;22475;-77
2023/06/10 01:06:52;;;;;;;;;;;;;;;15.76;91.39;100033.52;133955;1302;22472;-77
2023/06/10 01:10:03;;;;;;;;;;;;;;;15.76;91.46;100033.23;134131;1299;22437;-77
2023/06/10 01:13:08;;;;;;;;;;;;;;;15.75;91.50;100038.51;134008;1301;23183;-77
2023/06/10 01:16:09;;;;;;;;;;;;;;;15.75;91.48;100034.60;134133;1297;22471;-77
2023/06/10 01:19:10;;;;;;;;;;;;;;;15.78;91.74;100031.50;133948;1305;23314;-77
2023/06/10 01:22:15;;;;;;;;;;;;;;;15.81;91.85;100033.08;134115;1295;22490;-77
2023/06/10 01:25:17;;;;;;;;;;;;;;;15.84;91.91;100035.02;134098;1298;22534;-77
2023/06/10 01:28:23;;;;;;;;;;;;;;;15.86;91.88;100035.80;134127;1299;22539;-77
2023/06/10 01:31:33;;;;;;;;;;;;;;;15.88;91.98;100030.16;134015;1298;22473;-77
2023/06/10 01:34:35;;;;;;;;;;;;;;;15.89;91.92;100032.27;134109;1298;22420;-77
2023/06/10 01:37:38;;;;;;;;;;;;;;;15.86;91.79;100031.61;134047;1301;22461;-77
2023/06/10 01:40:42;;;;;;;;;;;;;;;15.85;91.91;100027.48;134092;1301;23206;-77
2023/06/10 01:43:43;;;;;;;;;;;;;;;15.86;92.06;100025.85;134080;1299;22472;-77
2023/06/10 01:46:44;;;;;;;;;;;;;;;15.85;92.15;100028.06;134191;1297;22495;-77
2023/06/10 01:49:45;;;;;;;;;;;;;;;15.85;92.35;100024.08;134121;1305;22438;-77
2023/06/10 01:52:46;;;;;;;;;;;;;;;15.88;92.53;100025.71;134107;1300;22446;-77
2023/06/10 01:55:47;;;;;;;;;;;;;;;15.89;92.75;100026.84;134062;1298;22449;-77
2023/06/10 01:58:47;;;;;;;;;;;;;;;15.88;92.83;100024.97;134077;1301;22450;-77
2023/06/10 02:01:50;;;;;;;;;;;;;;;15.88;92.59;100031.39;133937;1305;22450;-77
2023/06/10 02:04:51;;;;;;;;;;;;;;;15.87;92.67;100036.71;134010;1298;22527;-77
2023/06/10 02:07:55;;;;;;;;;;;;;;;15.84;92.73;100037.83;134135;1297;23226;-77
2023/06/10 02:10:56;;;;;;;;;;;;;;;15.81;92.70;100033.04;133797;1299;22448;-77
2023/06/10 02:13:56;;;;;;;;;;;;;;;15.79;92.82;100033.73;133989;1300;22423;-77
2023/06/10 02:16:57;;;;;;;;;;;;;;;15.80;92.84;100032.34;134022;1304;22462;-77
2023/06/10 02:20:06;;;;;;;;;;;;;;;15.83;92.93;100028.19;134131;1298;22500;-77
2023/06/10 02:23:06;;;;;;;;;;;;;;;15.85;92.82;100027.48;134082;1300;22447;-77
2023/06/10 02:26:07;;;;;;;;;;;;;;;15.88;92.89;100030.20;134022;1299;22455;-77
2023/06/10 02:29:07;;;;;;;;;;;;;;;15.89;92.73;100028.95;134134;1297;22467;-77
2023/06/10 02:32:08;;;;;;;;;;;;;;;15.86;92.52;100035.23;134112;1298;22444;-77
2023/06/10 02:35:12;;;;;;;;;;;;;;;15.86;92.57;100038.32;134030;1305;22433;-77
2023/06/10 02:38:13;;;;;;;;;;;;;;;15.87;92.46;100038.11;134104;1298;22467;-77
2023/06/10 02:41:13;;;;;;;;;;;;;;;15.88;92.46;100036.23;133942;1301;22441;-77
2023/06/10 02:44:15;;;;;;;;;;;;;;;15.89;92.34;100046.48;133907;1301;22433;-77
2023/06/10 02:47:15;;;;;;;;;;;;;;;15.89;92.32;100047.55;133917;1297;22492;-77
2023/06/10 02:50:16;;;;;;;;;;;;;;;15.88;92.22;100046.80;133993;1291;22458;-77
2023/06/10 02:53:37;;;;;;;;;;;;;;;15.86;92.20;100050.22;133999;1297;22478;-77
2023/06/10 02:56:41;;;;;;;;;;;;;;;15.83;92.27;100053.88;133991;1298;22459;-77
2023/06/10 02:59:44;;;;;;;;;;;;;;;15.75;92.30;100050.98;133930;1298;23243;-77
2023/06/10 03:02:45;;;;;;;;;;;;;;;15.68;92.46;100051.85;134024;1304;22416;-77
2023/06/10 03:05:46;;;;;;;;;;;;;;;15.65;92.80;100059.23;134096;1298;22448;-77
2023/06/10 03:08:50;;;;;;;;;;;;;;;15.65;93.05;100065.07;133946;1300;22420;-77
2023/06/10 03:11:52;;;;;;;;;;;;;;;15.68;93.01;100062.75;133958;1298;24891;-76
2023/06/10 03:14:53;;;;;;;;;;;;;;;15.71;93.00;100068.11;133979;1302;22444;-77
2023/06/10 03:17:55;;;;;;;;;;;;;;;15.73;93.12;100067.09;133915;1302;22474;-77
2023/06/10 03:20:56;;;;;;;;;;;;;;;15.74;93.22;100069.68;133994;1298;22444;-76
2023/06/10 03:23:58;;;;;;;;;;;;;;;15.74;93.17;100071.13;133945;1291;22536;-76
2023/06/10 03:26:58;;;;;;;;;;;;;;;15.73;93.30;100074.96;134071;1300;23240;-77
2023/06/10 03:29:59;;;;;;;;;;;;;;;15.72;93.33;100076.65;133979;1300;22465;-76
2023/06/10 03:33:01;;;;;;;;;;;;;;;15.73;93.31;100072.65;133937;1306;23199;-77
2023/06/10 03:36:04;;;;;;;;;;;;;;;15.72;93.40;100077.02;133983;1301;22521;-77
2023/06/10 03:39:05;;;;;;;;;;;;;;;15.72;93.54;100074.17;134062;1297;22449;-77
2023/06/10 03:42:06;;;;;;;;;;;;;;;15.72;93.61;100074.77;134063;1302;22438;-76
2023/06/10 03:45:07;;;;;;;;;;;;;;;15.73;93.83;100081.01;134033;1298;23049;-76
2023/06/10 03:48:10;;;;;;;;;;;;;;;15.75;94.09;100088.30;133974;1300;22438;-77
2023/06/10 03:51:22;;;;;;;;;;;;;;;15.77;94.14;100092.45;133694;1301;22448;-76
2023/06/10 03:54:24;;;;;;;;;;;;;;;15.77;94.29;100095.99;133931;1300;23212;-76
2023/06/10 03:57:25;;;;;;;;;;;;;;;15.76;94.40;100096.27;134034;1304;22450;-77
2023/06/10 04:00:26;;;;;;;;;;;;;;;15.77;94.60;100095.86;134102;1305;23142;-76
2023/06/10 04:03:27;;;;;;;;;;;;;;;15.77;94.81;100099.21;134022;1298;23283;-77
2023/06/10 04:06:28;;;;;;;;;;;;;;;15.77;94.76;100097.40;134101;1298;22451;-77
2023/06/10 04:09:29;;;;;;;;;;;;;;;15.77;94.99;100097.10;133964;1298;22531;-76
2023/06/10 04:12:31;;;;;;;;;;;;;;;15.77;94.81;100098.34;134080;1297;22596;-76
2023/06/10 04:15:34;;;;;;;;;;;;;;;15.80;94.73;100106.54;133907;1298;23129;-76
2023/06/10 04:18:38;;;;;;;;;;;;;;;15.82;94.65;100100.45;133944;1298;22435;-76
2023/06/10 04:21:40;;;;;;;;;;;;;;;15.86;94.58;100094.95;133891;1299;22533;-77
2023/06/10 04:24:41;;;;;;;;;;;;;;;15.89;94.54;100095.83;134016;1298;22451;-77
2023/06/10 04:27:43;;;;;;;;;;;;;;;15.93;94.58;100095.13;134018;1297;23223;-77
2023/06/10 04:30:45;;;;;;;;;;;;;;;15.95;94.50;100096.66;133936;1300;22459;-77
2023/06/10 04:33:46;;;;;;;;;;;;;;;16.01;94.46;100098.75;134014;1297;22451;-77
2023/06/10 04:36:47;;;;;;;;;;;;;;;16.06;94.60;100096.40;134000;1298;22465;-77
2023/06/10 04:39:48;;;;;;;;;;;;;;;16.15;94.73;100094.89;134017;1298;22470;-77
2023/06/10 04:42:48;;;;;;;;;;;;;;;16.25;94.76;100098.66;133859;1302;23286;-77
2023/06/10 04:45:49;;;;;;;;;;;;;;;16.32;94.64;100104.06;133928;1301;22446;-77
2023/06/10 04:48:50;;;;;;;;;;;;;;;16.36;94.38;100100.89;133956;1301;22503;-76
2023/06/10 04:51:51;;;;;;;;;;;;;;;16.40;94.35;100098.21;133924;1306;22430;-77
2023/06/10 04:54:51;;;;;;;;;;;;;;;16.47;94.38;100098.02;134011;1301;22432;-77
2023/06/10 04:57:52;;;;;;;;;;;;;;;16.50;94.05;100101.98;134034;1299;22452;-77
2023/06/10 05:00:52;;;;;;;;;;;;;;;16.52;93.90;100107.62;134024;1299;22422;-77
2023/06/10 05:03:53;;;;;;;;;;;;;;;16.53;93.75;100105.67;134029;1298;22477;-77
2023/06/10 05:06:53;;;;;;;;;;;;;;;16.59;93.86;100108.15;134022;1297;22526;-77
2023/06/10 05:09:54;;;;;;;;;;;;;;;16.62;93.76;100113.50;133944;1300;24041;-77
2023/06/10 05:12:55;;;;;;;;;;;;;;;16.65;93.70;100116.91;134026;1300;22460;-77
2023/06/10 05:15:55;;;;;;;;;;;;;;;16.72;93.61;100118.29;134101;1298;22508;-77
2023/06/10 05:18:55;;;;;;;;;;;;;;;16.82;93.87;100122.92;134034;1301;25303;-77
2023/06/10 05:21:56;;;;;;;;;;;;;;;16.91;93.82;100125.65;134104;1298;22498;-76
2023/06/10 05:24:56;;;;;;;;;;;;;;;17.01;94.00;100126.78;134056;1299;22422;-76
2023/06/10 05:27:57;;;;;;;;;;;;;;;17.15;93.98;100128.33;134040;1298;22464;-77
2023/06/10 05:30:58;;;;;;;;;;;;;;;17.22;93.49;100133.95;134128;1298;22449;-75
2023/06/10 05:33:58;;;;;;;;;;;;;;;17.24;92.66;100133.34;134035;1298;22427;-76
2023/06/10 05:36:59;;;;;;;;;;;;;;;17.24;92.78;100138.83;134023;1297;22564;-76
2023/06/10 05:39:59;;;;;;;;;;;;;;;17.29;92.88;100142.86;134046;1298;22478;-76
2023/06/10 05:43:02;;;;;;;;;;;;;;;17.35;93.03;100142.88;134119;1298;22428;-76
2023/06/10 05:46:06;;;;;;;;;;;;;;;17.42;92.56;100146.48;134099;1305;22438;-77
2023/06/10 05:49:09;;;;;;;;;;;;;;;17.46;92.43;100143.84;134068;1300;22449;-74
2023/06/10 05:52:12;;;;;;;;;;;;;;;17.52;92.48;100145.43;134035;1300;22439;-76
2023/06/10 05:55:13;;;;;;;;;;;;;;;17.58;92.43;100148.14;134105;1300;22453;-75
2023/06/10 05:58:13;;;;;;;;;;;;;;;17.62;92.15;100153.36;133996;1298;22453;-74
2023/06/10 06:01:14;;;;;;;;;;;;;;;17.65;91.98;100150.75;134006;1298;22476;-74
2023/06/10 06:04:16;;;;;;;;;;;;;;;17.70;92.10;100149.91;134081;1298;22450;-75
2023/06/10 06:07:16;;;;;;;;;;;;;;;17.75;91.72;100149.77;133959;1299;22453;-75
2023/06/10 06:10:20;;;;;;;;;;;;;;;17.81;91.76;100153.14;133942;1297;22459;-75
2023/06/10 06:13:20;;;;;;;;;;;;;;;17.88;91.34;100150.35;133994;1299;22470;-76
2023/06/10 06:16:21;;;;;;;;;;;;;;;17.93;90.96;100153.52;133997;1298;22540;-75
2023/06/10 06:19:21;;;;;;;;;;;;;;;17.96;90.50;100149.95;133990;1288;22491;-75
2023/06/10 06:22:25;;;;;;;;;;;;;;;17.95;89.76;100152.67;134015;1305;22440;-75
2023/06/10 06:25:26;;;;;;;;;;;;;;;17.96;89.64;100157.01;134070;1300;23262;-75
2023/06/10 06:28:28;;;;;;;;;;;;;;;17.98;90.02;100160.30;134033;1298;23068;-75
2023/06/10 06:31:29;;;;;;;;;;;;;;;18.02;90.23;100163.00;134040;1298;22503;-75
2023/06/10 06:34:30;;;;;;;;;;;;;;;18.07;90.41;100163.89;134069;1300;22416;-75
2023/06/10 06:37:30;;;;;;;;;;;;;;;18.13;90.17;100166.05;133983;1299;22469;-75
2023/06/10 06:40:49;;;;;;;;;;;;;;;18.27;90.79;100176.14;134058;1305;23536;-76
2023/06/10 06:43:53;;;;;;;;;;;;;;;18.41;90.76;100181.70;134023;1297;22488;-76
2023/06/10 06:47:07;;;;;;;;;;;;;;;18.47;89.96;100185.84;134026;1298;23243;-75
2023/06/10 06:50:07;;;;;;;;;;;;;;;18.48;89.56;100185.70;134063;1299;22451;-76
2023/06/10 06:53:08;;;;;;;;;;;;;;;18.49;89.11;100192.39;134034;1297;22468;-76
2023/06/10 06:56:08;;;;;;;;;;;;;;;18.50;88.89;100195.31;134085;1298;22444;-75
2023/06/10 06:59:09;;;;;;;;;;;;;;;18.52;88.89;100196.63;134054;1298;22420;-75
2023/06/10 07:02:12;;;;;;;;;;;;;;;18.54;88.49;100196.79;133998;1297;23198;-76
2023/06/10 07:05:13;;;;;;;;;;;;;;;18.54;88.31;100200.48;133960;1300;22513;-75
2023/06/10 07:08:13;;;;;;;;;;;;;;;18.59;88.28;100203.83;134035;1298;22428;-76
2023/06/10 07:11:14;;;;;;;;;;;;;;;18.65;88.25;100205.00;133952;1299;22476;-75
2023/06/10 07:14:15;;;;;;;;;;;;;;;18.75;87.97;100208.23;134063;1298;22457;-76
2023/06/10 07:17:15;;;;;;;;;;;;;;;18.85;87.42;100211.02;134069;1299;22423;-76
2023/06/10 07:20:16;;;;;;;;;;;;;;;18.94;87.11;100215.21;134071;1299;22470;-76
2023/06/10 07:23:16;;;;;;;;;;;;;;;19.06;87.04;100218.05;134071;1299;22449;-76
2023/06/10 07:26:17;;;;;;;;;;;;;;;19.21;86.97;100223.13;133968;1300;24515;-75
2023/06/10 07:29:17;;;;;;;;;;;;;;;19.46;86.60;100216.78;134064;1299;22561;-76
2023/06/10 07:32:20;;;;;;;;;;;;;;;19.67;85.90;100219.77;134045;1298;22551;-76
2023/06/10 07:35:20;;;;;;;;;;;;;;;19.89;85.08;100214.92;134048;1299;22431;-76
2023/06/10 07:38:21;;;;;;;;;;;;;;;20.18;85.19;100217.73;134037;1299;23357;-76
2023/06/10 07:41:22;;;;;;;;;;;;;;;20.48;84.19;100213.20;134016;1298;22929;-76
2023/06/10 07:44:23;;;;;;;;;;;;;;;20.73;84.24;100217.05;134055;1299;22446;-76
2023/06/10 07:47:26;;;;;;;;;;;;;;;20.87;82.56;100219.77;133998;1299;23335;-76
2023/06/10 07:50:29;;;;;;;;;;;;;;;20.90;81.46;100216.12;134054;1297;23167;-76
2023/06/10 07:53:32;;;;;;;;;;;;;;;20.96;81.14;100216.59;134037;1305;22409;-76
2023/06/10 07:56:34;;;;;;;;;;;;;;;21.19;81.51;100217.95;134124;1291;22558;-76
2023/06/10 07:59:37;;;;;;;;;;;;;;;21.54;80.95;100220.16;134061;1298;23191;-76
2023/06/10 08:02:38;;;;;;;;;;;;;;;21.91;78.63;100220.08;134080;1297;22440;-76
2023/06/10 08:05:43;;;;;;;;;;;;;;;22.03;75.67;100219.79;134019;1298;22462;-76
2023/06/10 08:08:43;;;;;;;;;;;;;;;22.13;75.20;100219.50;133997;1299;22432;-76
2023/06/10 08:11:48;;;;;;;;;;;;;;;22.41;74.60;100220.38;134112;1297;22543;-76
2023/06/10 08:14:54;;;;;;;;;;;;;;;22.72;74.25;100219.41;134088;1305;22418;-77
2023/06/10 08:17:58;;;;;;;;;;;;;;;23.07;72.74;100214.22;134137;1298;22458;-77
2023/06/10 08:21:03;;;;;;;;;;;;;;;23.06;71.55;100218.65;134149;1299;23231;-78
2023/06/10 08:24:09;;;;;;;;;;;;;;;22.98;72.05;100225.23;134092;1297;23232;-75
2023/06/10 08:27:10;;;;;;;;;;;;;;;22.98;70.87;100227.83;134046;1298;23201;-77
2023/06/10 08:30:12;;;;;;;;;;;;;;;22.88;70.20;100228.02;134060;1297;22467;-78
2023/06/10 08:33:13;;;;;;;;;;;;;;;22.77;69.58;100230.00;134104;1297;22473;-78
2023/06/10 08:36:14;;;;;;;;;;;;;;;22.70;69.51;100235.67;134044;1297;22522;-78
2023/06/10 08:39:14;;;;;;;;;;;;;;;22.69;69.57;100237.74;134045;1305;22458;-77
2023/06/10 08:42:15;;;;;;;;;;;;;;;22.73;68.56;100234.73;134086;1286;22402;-78
2023/06/10 08:45:18;;;;;;;;;;;;;;;22.97;68.30;100238.02;134054;1300;23170;-77
2023/06/10 08:48:19;;;;;;;;;;;;;;;23.34;68.38;100235.47;134068;1297;22452;-78
2023/06/10 08:51:20;;;;;;;;;;;;;;;23.79;66.41;100239.77;133961;1305;22498;-78
2023/06/10 08:54:21;;;;;;;;;;;;;;;24.20;67.35;100237.05;134150;1292;23007;-77
2023/06/10 08:57:22;;;;;;;;;;;;;;;24.59;66.54;100234.08;134122;1297;23311;-77
2023/06/10 09:00:23;;;;;;;;;;;;;;;24.87;65.34;100233.09;134148;1294;22394;-77
2023/06/10 09:03:24;;;;;;;;;;;;;;;25.16;64.57;100230.00;134039;1305;23090;-77
2023/06/10 09:06:25;;;;;;;;;;;;;;;25.36;64.40;100230.88;134000;1300;23130;-77
2023/06/10 09:09:27;;;;;;;;;;;;;;;25.65;63.74;100227.02;134133;1292;22472;-77
2023/06/10 09:12:28;;;;;;;;;;;;;;;26.09;64.02;100224.28;134078;1299;22453;-76
2023/06/10 09:15:28;;;;;;;;;;;;;;;26.64;63.41;100223.02;134103;1298;22450;-77
2023/06/10 09:18:29;;;;;;;;;;;;;;;26.64;62.72;100223.08;134085;1301;22436;-77
2023/06/10 09:21:32;;;;;;;;;;;;;;;26.47;61.68;100223.85;134129;1299;23123;-77
2023/06/10 09:24:33;;;;;;;;;;;;;;;26.03;60.96;100221.49;134062;1297;22441;-77
2023/06/10 09:27:43;;;;;;;;;;;;;;;25.80;61.73;100216.06;134072;1299;22442;-76
2023/06/10 09:30:48;;;;;;;;;;;;;;;26.03;61.63;100214.70;134039;1301;22521;-76
2023/06/10 09:33:51;;;;;;;;;;;;;;;26.27;60.20;100207.27;134112;1297;22447;-77
2023/06/10 09:36:55;;;;;;;;;;;;;;;26.47;60.05;100205.85;134109;1284;22514;-77
2023/06/10 09:40:04;;;;;;;;;;;;;;;26.65;59.50;100199.78;133899;1298;22452;-76
2023/06/10 09:43:04;;;;;;;;;;;;;;;26.81;58.45;100193.27;134052;1299;22476;-77
2023/06/10 09:46:08;;;;;;;;;;;;;;;26.90;57.60;100189.66;134032;1300;22432;-76
2023/06/10 09:49:08;;;;;;;;;;;;;;;27.04;57.06;100186.00;134071;1297;22432;-77
2023/06/10 09:52:11;;;;;;;;;;;;;;;26.93;53.61;100184.20;133964;1305;22447;-77
2023/06/10 09:55:12;;;;;;;;;;;;;;;26.74;54.05;100181.89;134132;1300;22450;-77
2023/06/10 09:58:15;;;;;;;;;;;;;;;26.73;53.86;100182.42;134087;1300;23197;-76
2023/06/10 10:01:16;;;;;;;;;;;;;;;26.93;54.80;100187.04;134076;1299;22439;-76
2023/06/10 10:04:22;;;;;;;;;;;;;;;27.09;54.52;100187.52;134070;1298;22457;-74
2023/06/10 10:07:23;;;;;;;;;;;;;;;26.80;53.20;100183.94;134183;1297;23246;-76
2023/06/10 10:10:23;;;;;;;;;;;;;;;26.47;54.44;100182.05;134046;1299;22448;-76
2023/06/10 10:13:28;;;;;;;;;;;;;;;26.41;55.07;100185.31;133986;1300;22589;-76
2023/06/10 10:16:40;;;;;;;;;;;;;;;26.16;54.94;100186.41;134029;1298;22497;-76
2023/06/10 10:19:48;;;;;;;;;;;;;;;25.61;53.54;100182.81;134060;1297;22429;-76
2023/06/10 10:22:53;;;;;;;;;;;;;;;25.20;53.28;100177.32;134083;1300;22554;-75
2023/06/10 10:25:55;;;;;;;;;;;;;;;25.00;53.66;100176.41;134036;1297;22444;-76
2023/06/10 10:29:01;;;;;;;;;;;;;;;25.09;54.34;100173.60;134064;1305;22418;-76
2023/06/10 10:32:03;;;;;;;;;;;;;;;25.08;54.33;100168.21;134023;1298;22447;-76
2023/06/10 10:35:07;;;;;;;;;;;;;;;25.00;54.42;100163.11;134079;1297;23216;-76
2023/06/10 10:38:08;;;;;;;;;;;;;;;25.24;53.31;100158.56;134023;1298;23145;-76
2023/06/10 10:41:09;;;;;;;;;;;;;;;25.50;54.18;100157.40;134063;1300;22508;-76
2023/06/10 10:44:11;;;;;;;;;;;;;;;25.86;53.28;100152.45;134022;1299;22456;-76
2023/06/10 10:47:12;;;;;;;;;;;;;;;25.94;52.29;100148.07;134027;1298;22451;-76
2023/06/10 10:50:16;;;;;;;;;;;;;;;26.04;52.02;100146.58;134012;1298;22444;-77
2023/06/10 10:53:20;;;;;;;;;;;;;;;25.99;50.74;100141.63;134099;1300;22456;-76
2023/06/10 10:56:21;;;;;;;;;;;;;;;25.76;51.59;100140.45;134083;1298;22472;-77
2023/06/10 10:59:21;;;;;;;;;;;;;;;25.74;51.10;100140.27;134082;1297;22454;-76
2023/06/10 11:02:38;;;;;;;;;;;;;;;25.94;49.07;100134.86;134017;1297;22517;-78
2023/06/10 11:05:38;;;;;;;;;;;;;;;26.06;49.23;100132.23;134044;1299;22507;-78
2023/06/10 11:08:39;;;;;;;;;;;;;;;26.29;49.45;100130.52;134085;1297;22443;-81
2023/06/10 11:11:49;;;;;;;;;;;;;;;26.49;49.00;100130.16;134060;1298;22455;-81
2023/06/10 11:14:54;;;;;;;;;;;;;;;26.72;49.21;100127.84;134055;1297;22435;-82
2023/06/10 11:18:07;;;;;;;;;;;;;;;26.86;47.83;100122.92;134110;1298;22448;-81
2023/06/10 11:21:08;;;;;;;;;;;;;;;26.70;46.08;100125.11;134036;1300;22423;-82
2023/06/10 11:24:14;;;;;;;;;;;;;;;26.47;46.11;100125.59;134060;1298;22521;-81
2023/06/10 11:27:18;;;;;;;;;;;;;;;26.46;46.93;100126.35;134090;1298;22451;-81
2023/06/10 11:30:19;;;;;;;;;;;;;;;26.57;45.86;100128.77;134027;1298;22478;-85
2023/06/10 11:33:26;;;;;;;;;;;;;;;26.55;44.89;100128.55;133995;1297;22501;-83
2023/06/10 11:36:29;;;;;;;;;;;;;;;26.41;43.77;100129.67;134037;1288;22496;-86
2023/06/10 11:39:29;;;;;;;;;;;;;;;26.26;42.63;100133.73;133974;1291;22558;-87
2023/06/10 11:42:30;;;;;;;;;;;;;;;26.08;42.58;100138.70;134011;1297;22494;-84
2023/06/10 11:45:34;;;;;;;;;;;;;;;25.99;43.84;100138.75;133990;1297;22476;-84
2023/06/10 11:48:35;;;;;;;;;;;;;;;25.97;43.11;100134.87;133986;1300;22468;-85
2023/06/10 11:51:41;;;;;;;;;;;;;;;25.91;43.59;100137.58;133963;1298;22460;-82
2023/06/10 11:54:41;;;;;;;;;;;;;;;25.88;43.69;100139.36;134008;1298;22790;-82
2023/06/10 11:57:43;;;;;;;;;;;;;;;25.95;43.47;100135.14;133988;1300;23234;-82
2023/06/10 12:00:48;;;;;;;;;;;;;;;25.94;43.27;100138.89;134030;1298;22467;-82
2023/06/10 12:03:59;;;;;;;;;;;;;;;25.92;42.81;100135.25;133965;1285;22440;-83
2023/06/10 12:07:02;;;;;;;;;;;;;;;25.90;42.80;100127.35;133993;1297;22497;-82
2023/06/10 12:10:05;;;;;;;;;;;;;;;26.07;43.56;100120.23;133971;1297;22525;-82
2023/06/10 12:13:11;;;;;;;;;;;;;;;26.35;44.23;100119.80;133993;1298;22455;-82
2023/06/10 12:16:11;;;;;;;;;;;;;;;26.53;43.79;100122.77;133969;1300;22438;-85
2023/06/10 12:19:12;;;;;;;;;;;;;;;26.30;41.80;100126.00;134016;1298;22469;-85
2023/06/10 12:22:19;;;;;;;;;;;;;;;26.19;41.88;100124.03;133924;1298;22472;-84
2023/06/10 12:25:27;;;;;;;;;;;;;;;26.36;41.52;100116.65;134020;1297;22428;-82
2023/06/10 12:28:30;;;;;;;;;;;;;;;26.55;41.18;100119.29;133979;1298;22455;-79
2023/06/10 12:31:33;;;;;;;;;;;;;;;26.65;40.91;100118.04;134004;1298;22454;-90
2023/06/10 12:34:38;;;;;;;;;;;;;;;26.78;39.17;100118.25;134037;1298;23244;-84
2023/06/10 12:37:54;;;;;;;;;;;;;;;26.83;38.01;100117.91;134020;1298;22482;-80
2023/06/10 12:41:05;;;;;;;;;;;;;;;26.78;37.12;100112.86;134024;1300;22458;-84
2023/06/10 12:44:06;;;;;;;;;;;;;;;26.79;36.76;100110.02;134017;1298;22463;-85
2023/06/10 12:47:08;;;;;;;;;;;;;;;26.72;35.07;100103.71;133995;1297;22450;-84
2023/06/10 12:50:09;;;;;;;;;;;;;;;26.68;36.51;100106.77;133890;1300;22584;-84
2023/06/10 12:53:11;;;;;;;;;;;;;;;26.68;36.80;100103.19;133983;1298;22479;-84
2023/06/10 12:56:12;;;;;;;;;;;;;;;26.67;36.91;100106.55;133965;1300;22434;-84
2023/06/10 12:59:12;;;;;;;;;;;;;;;26.60;35.10;100110.59;134016;1298;22450;-84
2023/06/10 13:02:13;;;;;;;;;;;;;;;26.49;35.23;100106.29;134005;1299;22459;-84
2023/06/10 13:05:13;;;;;;;;;;;;;;;26.42;34.99;100104.10;133980;1298;24092;-87
2023/06/10 13:08:14;;;;;;;;;;;;;;;26.30;33.92;100112.14;133957;1298;22570;-84
2023/06/10 13:11:17;;;;;;;;;;;;;;;26.26;35.03;100105.45;133982;1298;22467;-85
2023/06/10 13:14:21;;;;;;;;;;;;;;;26.30;35.68;100111.16;133999;1297;22545;-84
2023/06/10 13:17:22;;;;;;;;;;;;;;;26.32;35.46;100114.70;133954;1299;22450;-84
2023/06/10 13:20:27;;;;;;;;;;;;;;;26.24;33.98;100116.54;133989;1298;22480;-82
2023/06/10 13:23:31;;;;;;;;;;;;;;;26.10;33.18;100116.48;133978;1298;22512;-82
2023/06/10 13:26:31;;;;;;;;;;;;;;;26.10;33.05;100119.02;133995;1297;22464;-82
2023/06/10 13:29:35;;;;;;;;;;;;;;;26.08;32.47;100116.30;133986;1299;22476;-82
2023/06/10 13:32:36;;;;;;;;;;;;;;;25.98;32.55;100119.92;133995;1297;23143;-83
2023/06/10 13:35:39;;;;;;;;;;;;;;;25.87;32.36;100120.45;134016;1298;22515;-84
2023/06/10 13:38:42;;;;;;;;;;;;;;;25.85;32.64;100125.44;134044;1298;22533;-83
2023/06/10 13:41:42;;;;;;;;;;;;;;;25.83;32.32;100121.17;134060;1297;22468;-81
2023/06/10 13:44:43;;;;;;;;;;;;;;;25.82;32.93;100118.84;134057;1298;23351;-87
2023/06/10 13:47:44;;;;;;;;;;;;;;;25.81;32.47;100124.05;134032;1298;22550;-79
2023/06/10 13:50:45;;;;;;;;;;;;;;;25.78;32.38;100120.13;134037;1297;22462;-80
2023/06/10 13:53:46;;;;;;;;;;;;;;;25.72;30.89;100118.15;134025;1297;23201;-79
2023/06/10 13:56:46;;;;;;;;;;;;;;;25.66;31.62;100123.23;134062;1298;22561;-81
2023/06/10 13:59:48;;;;;;;;;;;;;;;25.59;30.43;100121.31;134089;1297;22522;-85
2023/06/10 14:02:48;;;;;;;;;;;;;;;25.52;29.97;100124.80;134060;1298;22461;-82
2023/06/10 14:05:49;;;;;;;;;;;;;;;25.47;30.66;100123.70;134069;1298;22462;-83
2023/06/10 14:08:49;;;;;;;;;;;;;;;25.53;30.96;100122.54;134044;1299;22460;-83
2023/06/10 14:11:50;;;;;;;;;;;;;;;25.55;31.28;100118.42;134030;1297;23327;-80
2023/06/10 14:14:50;;;;;;;;;;;;;;;25.59;30.29;100120.10;134084;1297;22497;-82
2023/06/10 14:17:53;;;;;;;;;;;;;;;25.63;30.25;100116.00;134113;1297;22455;-81
2023/06/10 14:20:56;;;;;;;;;;;;;;;25.65;30.79;100121.48;134082;1291;23202;-80
2023/06/10 14:23:57;;;;;;;;;;;;;;;25.68;30.84;100122.05;134048;1298;22557;-80
2023/06/10 14:26:58;;;;;;;;;;;;;;;25.63;30.72;100116.59;134101;1297;22448;-78
2023/06/10 14:29:58;;;;;;;;;;;;;;;25.64;31.14;100114.15;134127;1301;23134;-78
2023/06/10 14:32:59;;;;;;;;;;;;;;;25.64;30.91;100111.92;134069;1298;23152;-77
2023/06/10 14:36:05;;;;;;;;;;;;;;;25.58;30.67;100116.35;134030;1298;23440;-77
2023/06/10 14:39:09;;;;;;;;;;;;;;;25.49;30.59;100114.42;134067;1298;22464;-75
2023/06/10 14:42:12;;;;;;;;;;;;;;;25.37;30.21;100115.02;134083;1299;22447;-78
2023/06/10 14:45:14;;;;;;;;;;;;;;;25.29;30.25;100108.63;134090;1298;23598;-75
2023/06/10 14:48:15;;;;;;;;;;;;;;;25.26;30.44;100109.38;134080;1301;23368;-75
2023/06/10 14:51:15;;;;;;;;;;;;;;;25.25;30.87;100110.08;134070;1300;22569;-75
2023/06/10 14:54:16;;;;;;;;;;;;;;;25.23;30.84;100108.77;134030;1299;22474;-76
2023/06/10 14:57:21;;;;;;;;;;;;;;;25.22;31.91;100107.66;134028;1297;22517;-76
2023/06/10 15:00:25;;;;;;;;;;;;;;;25.22;32.49;100102.36;134042;1299;22482;-76
2023/06/10 15:03:26;;;;;;;;;;;;;;;25.27;32.65;100107.92;134053;1299;22436;-76
2023/06/10 15:06:29;;;;;;;;;;;;;;;25.30;32.51;100107.27;134030;1298;22454;-75
2023/06/10 15:09:31;;;;;;;;;;;;;;;25.30;32.77;100107.83;134028;1298;22506;-75
2023/06/10 15:12:32;;;;;;;;;;;;;;;25.28;33.16;100110.41;134042;1299;23251;-75
2023/06/10 15:15:35;;;;;;;;;;;;;;;25.27;33.43;100119.32;134105;1298;23726;-75
2023/06/10 15:18:35;;;;;;;;;;;;;;;25.28;33.89;100117.65;134073;1303;22424;-75
2023/06/10 15:21:39;;;;;;;;;;;;;;;25.31;34.39;100122.43;134044;1299;22459;-75
2023/06/10 15:24:44;;;;;;;;;;;;;;;25.34;34.11;100122.71;134078;1298;22469;-76